sensor_id;sensor_type;location;lat;lon;timestamp;temperature;humidity
35246;DHT22;21379;50.962;6.960;2023-02-28T00:01:18;0.50;99.90
35246;DHT22;21379;50.962;6.960;2023-02-28T00:03:46;0.40;99.90
35246;DHT22;21379;50.962;6.960;2023-02-28T00:06:13;0.30;99.90
35246;DHT22;21379;50.962;6.960;2023-02-28T00:08:40;0.20;99.90
35246;DHT22;21379;50.962;6.960;2023-02-28T00:11:09;0.20;99.90
35246;DHT22;21379;50.962;6.960;2023-02-28T00:13:38;0.10;99.90
35246;DHT22;21379;50.962;6.960;2023-02-28T00:16:07;0.10;99.90
35246;DHT22;21379;50.962;6.960;2023-02-28T00:18:34;0.10;99.90
35246;DHT22;21379;50.962;6.960;2023-02-28T00:21:03;0.10;99.90
35246;DHT22;21379;50.962;6.960;2023-02-28T00:23:30;0.10;99.90
35246;DHT22;21379;50.962;6.960;2023-02-28T00:25:57;0.00;99.90
35246;DHT22;21379;50.962;6.960;2023-02-28T00:28:24;0.00;99.90
35246;DHT22;21379;50.962;6.960;2023-02-28T00:30:51;0.00;99.90
35246;DHT22;21379;50.962;6.960;2023-02-28T00:33:18;0.00;99.90
35246;DHT22;21379;50.962;6.960;2023-02-28T00:35:45;0.10;99.90
35246;DHT22;21379;50.962;6.960;2023-02-28T00:38:15;0.20;99.90
35246;DHT22;21379;50.962;6.960;2023-02-28T00:40:43;0.30;99.90
35246;DHT22;21379;50.962;6.960;2023-02-28T00:43:10;0.20;99.90
35246;DHT22;21379;50.962;6.960;2023-02-28T00:45:36;0.20;99.90
35246;DHT22;21379;50.962;6.960;2023-02-28T00:48:04;0.30;99.90
35246;DHT22;21379;50.962;6.960;2023-02-28T00:50:31;0.30;99.90
35246;DHT22;21379;50.962;6.960;2023-02-28T00:52:58;0.30;99.90
35246;DHT22;21379;50.962;6.960;2023-02-28T00:55:26;0.30;99.90
35246;DHT22;21379;50.962;6.960;2023-02-28T00:57:53;0.30;99.90
35246;DHT22;21379;50.962;6.960;2023-02-28T01:00:20;0.20;99.90
35246;DHT22;21379;50.962;6.960;2023-02-28T01:02:47;0.20;99.90
35246;DHT22;21379;50.962;6.960;2023-02-28T01:05:13;0.30;99.90
35246;DHT22;21379;50.962;6.960;2023-02-28T01:07:40;0.20;99.90
35246;DHT22;21379;50.962;6.960;2023-02-28T01:10:08;0.10;99.90
35246;DHT22;21379;50.962;6.960;2023-02-28T01:12:37;0.10;99.90
35246;DHT22;21379;50.962;6.960;2023-02-28T01:15:04;0.10;99.90
35246;DHT22;21379;50.962;6.960;2023-02-28T01:17:31;0.10;99.90
35246;DHT22;21379;50.962;6.960;2023-02-28T01:19:58;0.20;99.90
35246;DHT22;21379;50.962;6.960;2023-02-28T01:22:25;0.20;99.90
35246;DHT22;21379;50.962;6.960;2023-02-28T01:24:52;0.10;99.90
35246;DHT22;21379;50.962;6.960;2023-02-28T01:27:19;0.20;99.90
35246;DHT22;21379;50.962;6.960;2023-02-28T01:29:47;0.20;99.90
35246;DHT22;21379;50.962;6.960;2023-02-28T01:32:14;0.00;99.90
35246;DHT22;21379;50.962;6.960;2023-02-28T01:34:40;0.00;99.90
35246;DHT22;21379;50.962;6.960;2023-02-28T01:37:07;-0.10;99.90
35246;DHT22;21379;50.962;6.960;2023-02-28T01:39:34;-0.10;99.90
35246;DHT22;21379;50.962;6.960;2023-02-28T01:42:01;-0.10;99.90
35246;DHT22;21379;50.962;6.960;2023-02-28T01:45:01;0.00;99.90
35246;DHT22;21379;50.962;6.960;2023-02-28T01:47:32;0.00;99.90
35246;DHT22;21379;50.962;6.960;2023-02-28T01:50:01;0.00;99.90
35246;DHT22;21379;50.962;6.960;2023-02-28T01:52:29;0.00;99.90
35246;DHT22;21379;50.962;6.960;2023-02-28T01:54:59;-0.10;99.90
35246;DHT22;21379;50.962;6.960;2023-02-28T01:57:30;-0.20;99.90
35246;DHT22;21379;50.962;6.960;2023-02-28T02:00:07;-0.20;99.90
35246;DHT22;21379;50.962;6.960;2023-02-28T02:02:35;-0.20;99.90
35246;DHT22;21379;50.962;6.960;2023-02-28T02:05:06;-0.20;99.90
35246;DHT22;21379;50.962;6.960;2023-02-28T02:07:35;-0.20;99.90
35246;DHT22;21379;50.962;6.960;2023-02-28T02:10:05;-0.20;99.90
35246;DHT22;21379;50.962;6.960;2023-02-28T02:12:48;-0.20;99.90
35246;DHT22;21379;50.962;6.960;2023-02-28T02:15:26;-0.20;99.90
35246;DHT22;21379;50.962;6.960;2023-02-28T02:17:58;-0.20;99.90
35246;DHT22;21379;50.962;6.960;2023-02-28T02:23:33;-0.20;99.90
35246;DHT22;21379;50.962;6.960;2023-02-28T02:26:21;-0.20;99.90
35246;DHT22;21379;50.962;6.960;2023-02-28T02:29:10;-0.10;99.90
35246;DHT22;21379;50.962;6.960;2023-02-28T02:34:55;0.00;99.90
35246;DHT22;21379;50.962;6.960;2023-02-28T02:37:29;-0.10;99.90
35246;DHT22;21379;50.962;6.960;2023-02-28T02:40:03;-0.10;99.90
35246;DHT22;21379;50.962;6.960;2023-02-28T02:42:36;-0.20;99.90
35246;DHT22;21379;50.962;6.960;2023-02-28T02:45:09;-0.20;99.90
35246;DHT22;21379;50.962;6.960;2023-02-28T02:47:37;-0.10;99.90
35246;DHT22;21379;50.962;6.960;2023-02-28T02:50:12;0.00;99.90
35246;DHT22;21379;50.962;6.960;2023-02-28T02:52:44;-0.10;99.90
35246;DHT22;21379;50.962;6.960;2023-02-28T02:55:12;-0.20;99.90
35246;DHT22;21379;50.962;6.960;2023-02-28T02:57:44;-0.20;99.90
35246;DHT22;21379;50.962;6.960;2023-02-28T03:00:14;-0.30;99.90
35246;DHT22;21379;50.962;6.960;2023-02-28T03:02:43;-0.30;99.90
35246;DHT22;21379;50.962;6.960;2023-02-28T03:05:19;-0.40;99.90
35246;DHT22;21379;50.962;6.960;2023-02-28T03:07:46;-0.40;99.90
35246;DHT22;21379;50.962;6.960;2023-02-28T03:10:31;-0.50;99.90
35246;DHT22;21379;50.962;6.960;2023-02-28T03:13:10;-0.50;99.90
35246;DHT22;21379;50.962;6.960;2023-02-28T03:15:43;-0.50;99.90
35246;DHT22;21379;50.962;6.960;2023-02-28T03:18:15;-0.50;99.90
35246;DHT22;21379;50.962;6.960;2023-02-28T03:20:49;-0.40;99.90
35246;DHT22;21379;50.962;6.960;2023-02-28T03:23:24;-0.40;99.90
35246;DHT22;21379;50.962;6.960;2023-02-28T03:25:59;-0.40;99.90
35246;DHT22;21379;50.962;6.960;2023-02-28T03:28:31;-0.50;99.90
35246;DHT22;21379;50.962;6.960;2023-02-28T03:31:10;-0.50;99.90
35246;DHT22;21379;50.962;6.960;2023-02-28T03:33:43;-0.50;99.90
35246;DHT22;21379;50.962;6.960;2023-02-28T03:36:16;-0.60;99.90
35246;DHT22;21379;50.962;6.960;2023-02-28T03:38:46;-0.50;99.90
35246;DHT22;21379;50.962;6.960;2023-02-28T03:41:19;-0.50;99.90
35246;DHT22;21379;50.962;6.960;2023-02-28T03:43:50;-0.50;99.90
35246;DHT22;21379;50.962;6.960;2023-02-28T03:46:23;-0.40;99.90
35246;DHT22;21379;50.962;6.960;2023-02-28T03:48:57;-0.30;99.90
35246;DHT22;21379;50.962;6.960;2023-02-28T03:51:29;-0.30;99.90
35246;DHT22;21379;50.962;6.960;2023-02-28T03:54:03;-0.20;99.90
35246;DHT22;21379;50.962;6.960;2023-02-28T03:56:34;-0.30;99.90
35246;DHT22;21379;50.962;6.960;2023-02-28T03:59:07;-0.40;99.90
35246;DHT22;21379;50.962;6.960;2023-02-28T04:01:39;-0.40;99.90
35246;DHT22;21379;50.962;6.960;2023-02-28T04:04:07;-0.40;99.90
35246;DHT22;21379;50.962;6.960;2023-02-28T04:06:35;-0.50;99.90
35246;DHT22;21379;50.962;6.960;2023-02-28T04:09:04;-0.50;99.90
35246;DHT22;21379;50.962;6.960;2023-02-28T04:11:34;-0.50;99.90
35246;DHT22;21379;50.962;6.960;2023-02-28T04:14:01;-0.60;99.90
35246;DHT22;21379;50.962;6.960;2023-02-28T04:16:28;-0.50;99.90
35246;DHT22;21379;50.962;6.960;2023-02-28T04:18:55;-0.50;99.90
35246;DHT22;21379;50.962;6.960;2023-02-28T04:21:28;-0.50;99.90
35246;DHT22;21379;50.962;6.960;2023-02-28T04:23:57;-0.40;99.90
35246;DHT22;21379;50.962;6.960;2023-02-28T04:26:27;-0.40;99.90
35246;DHT22;21379;50.962;6.960;2023-02-28T04:28:55;-0.40;99.90
35246;DHT22;21379;50.962;6.960;2023-02-28T04:31:22;-0.50;99.90
35246;DHT22;21379;50.962;6.960;2023-02-28T04:33:48;-0.50;99.90
35246;DHT22;21379;50.962;6.960;2023-02-28T04:36:15;-0.60;99.90
35246;DHT22;21379;50.962;6.960;2023-02-28T04:38:44;-0.60;99.90
35246;DHT22;21379;50.962;6.960;2023-02-28T04:41:12;-0.70;99.90
35246;DHT22;21379;50.962;6.960;2023-02-28T04:43:39;-0.70;99.90
35246;DHT22;21379;50.962;6.960;2023-02-28T04:46:06;-0.60;99.90
35246;DHT22;21379;50.962;6.960;2023-02-28T04:48:35;-0.80;99.90
35246;DHT22;21379;50.962;6.960;2023-02-28T04:51:04;-0.80;99.90
35246;DHT22;21379;50.962;6.960;2023-02-28T04:53:31;-0.70;99.90
35246;DHT22;21379;50.962;6.960;2023-02-28T04:55:58;-0.70;99.90
35246;DHT22;21379;50.962;6.960;2023-02-28T04:58:27;-0.80;99.90
35246;DHT22;21379;50.962;6.960;2023-02-28T05:01:01;-0.90;99.90
35246;DHT22;21379;50.962;6.960;2023-02-28T05:03:28;-0.80;99.90
35246;DHT22;21379;50.962;6.960;2023-02-28T05:05:55;-0.80;99.90
35246;DHT22;21379;50.962;6.960;2023-02-28T05:08:22;-0.80;99.90
35246;DHT22;21379;50.962;6.960;2023-02-28T05:10:48;-0.90;99.90
35246;DHT22;21379;50.962;6.960;2023-02-28T05:13:15;-0.90;99.90
35246;DHT22;21379;50.962;6.960;2023-02-28T05:15:43;-0.90;99.90
35246;DHT22;21379;50.962;6.960;2023-02-28T05:18:10;-0.80;99.90
35246;DHT22;21379;50.962;6.960;2023-02-28T05:20:37;-0.90;99.90
35246;DHT22;21379;50.962;6.960;2023-02-28T05:23:04;-0.90;99.90
35246;DHT22;21379;50.962;6.960;2023-02-28T05:25:30;-1.00;99.90
35246;DHT22;21379;50.962;6.960;2023-02-28T05:27:57;-0.90;99.90
35246;DHT22;21379;50.962;6.960;2023-02-28T05:30:24;-0.90;99.90
35246;DHT22;21379;50.962;6.960;2023-02-28T05:32:52;-0.90;99.90
35246;DHT22;21379;50.962;6.960;2023-02-28T05:35:19;-1.00;99.90
35246;DHT22;21379;50.962;6.960;2023-02-28T05:37:46;-1.00;99.90
35246;DHT22;21379;50.962;6.960;2023-02-28T05:40:13;-1.10;99.90
35246;DHT22;21379;50.962;6.960;2023-02-28T05:42:41;-1.00;99.90
35246;DHT22;21379;50.962;6.960;2023-02-28T05:45:09;-1.00;99.90
35246;DHT22;21379;50.962;6.960;2023-02-28T05:47:36;-1.00;99.90
35246;DHT22;21379;50.962;6.960;2023-02-28T05:50:05;-0.90;99.90
35246;DHT22;21379;50.962;6.960;2023-02-28T05:52:32;-0.90;99.90
35246;DHT22;21379;50.962;6.960;2023-02-28T05:54:59;-0.90;99.90
35246;DHT22;21379;50.962;6.960;2023-02-28T05:57:26;-0.90;99.90
35246;DHT22;21379;50.962;6.960;2023-02-28T05:59:52;-0.90;99.90
35246;DHT22;21379;50.962;6.960;2023-02-28T06:02:19;-0.90;99.90
35246;DHT22;21379;50.962;6.960;2023-02-28T06:04:46;-0.90;99.90
35246;DHT22;21379;50.962;6.960;2023-02-28T06:07:14;-0.90;99.90
35246;DHT22;21379;50.962;6.960;2023-02-28T06:09:43;-0.90;99.90
35246;DHT22;21379;50.962;6.960;2023-02-28T06:12:10;-0.90;99.90
35246;DHT22;21379;50.962;6.960;2023-02-28T06:14:36;-0.90;99.90
35246;DHT22;21379;50.962;6.960;2023-02-28T06:17:04;-0.80;99.90
35246;DHT22;21379;50.962;6.960;2023-02-28T06:19:30;-0.90;99.90
35246;DHT22;21379;50.962;6.960;2023-02-28T06:21:57;-0.90;99.90
35246;DHT22;21379;50.962;6.960;2023-02-28T06:24:27;-0.80;99.90
35246;DHT22;21379;50.962;6.960;2023-02-28T06:26:54;-0.80;99.90
35246;DHT22;21379;50.962;6.960;2023-02-28T06:29:21;-0.70;99.90
35246;DHT22;21379;50.962;6.960;2023-02-28T06:31:48;-0.80;99.90
35246;DHT22;21379;50.962;6.960;2023-02-28T06:34:15;-0.80;99.90
35246;DHT22;21379;50.962;6.960;2023-02-28T06:36:42;-0.70;99.90
35246;DHT22;21379;50.962;6.960;2023-02-28T06:39:09;-0.60;99.90
35246;DHT22;21379;50.962;6.960;2023-02-28T06:41:37;-0.60;99.90
35246;DHT22;21379;50.962;6.960;2023-02-28T06:44:05;-0.50;99.90
35246;DHT22;21379;50.962;6.960;2023-02-28T06:46:32;-0.60;99.90
35246;DHT22;21379;50.962;6.960;2023-02-28T06:48:59;-0.60;99.90
35246;DHT22;21379;50.962;6.960;2023-02-28T06:51:26;-0.60;99.90
35246;DHT22;21379;50.962;6.960;2023-02-28T06:53:53;-0.40;99.90
35246;DHT22;21379;50.962;6.960;2023-02-28T06:56:20;-0.40;99.90
35246;DHT22;21379;50.962;6.960;2023-02-28T06:58:49;-0.30;99.90
35246;DHT22;21379;50.962;6.960;2023-02-28T07:01:18;-0.30;99.90
35246;DHT22;21379;50.962;6.960;2023-02-28T07:03:46;-0.20;99.90
35246;DHT22;21379;50.962;6.960;2023-02-28T07:06:17;-0.20;99.90
35246;DHT22;21379;50.962;6.960;2023-02-28T07:08:44;-0.10;99.90
35246;DHT22;21379;50.962;6.960;2023-02-28T07:11:11;-0.10;99.90
35246;DHT22;21379;50.962;6.960;2023-02-28T07:13:38;0.00;99.90
35246;DHT22;21379;50.962;6.960;2023-02-28T07:16:10;0.00;99.90
35246;DHT22;21379;50.962;6.960;2023-02-28T07:18:37;0.10;99.90
35246;DHT22;21379;50.962;6.960;2023-02-28T07:21:07;0.20;99.90
35246;DHT22;21379;50.962;6.960;2023-02-28T07:23:34;0.30;99.90
35246;DHT22;21379;50.962;6.960;2023-02-28T07:26:03;0.40;99.90
35246;DHT22;21379;50.962;6.960;2023-02-28T07:28:30;0.50;99.90
35246;DHT22;21379;50.962;6.960;2023-02-28T07:31:03;0.70;99.90
35246;DHT22;21379;50.962;6.960;2023-02-28T07:33:31;0.80;99.90
35246;DHT22;21379;50.962;6.960;2023-02-28T07:36:03;1.00;99.90
35246;DHT22;21379;50.962;6.960;2023-02-28T07:38:33;1.00;99.90
35246;DHT22;21379;50.962;6.960;2023-02-28T07:41:00;1.10;99.90
35246;DHT22;21379;50.962;6.960;2023-02-28T07:43:29;1.20;99.90
35246;DHT22;21379;50.962;6.960;2023-02-28T07:46:01;1.20;99.90
35246;DHT22;21379;50.962;6.960;2023-02-28T07:48:28;1.30;99.90
35246;DHT22;21379;50.962;6.960;2023-02-28T07:50:56;1.50;99.90
35246;DHT22;21379;50.962;6.960;2023-02-28T07:53:24;1.50;99.90
35246;DHT22;21379;50.962;6.960;2023-02-28T07:55:51;1.50;99.90
35246;DHT22;21379;50.962;6.960;2023-02-28T07:58:20;1.70;99.90
35246;DHT22;21379;50.962;6.960;2023-02-28T08:00:47;1.90;99.90
35246;DHT22;21379;50.962;6.960;2023-02-28T08:03:14;2.00;99.90
35246;DHT22;21379;50.962;6.960;2023-02-28T08:05:41;2.20;99.90
35246;DHT22;21379;50.962;6.960;2023-02-28T08:08:09;2.30;99.90
35246;DHT22;21379;50.962;6.960;2023-02-28T08:10:36;2.50;99.90
35246;DHT22;21379;50.962;6.960;2023-02-28T08:13:03;2.60;99.90
35246;DHT22;21379;50.962;6.960;2023-02-28T08:15:30;2.70;99.90
35246;DHT22;21379;50.962;6.960;2023-02-28T08:17:57;2.80;99.90
35246;DHT22;21379;50.962;6.960;2023-02-28T08:20:24;2.90;99.90
35246;DHT22;21379;50.962;6.960;2023-02-28T08:22:51;2.70;99.90
35246;DHT22;21379;50.962;6.960;2023-02-28T08:25:20;2.80;99.90
35246;DHT22;21379;50.962;6.960;2023-02-28T08:27:47;3.10;99.90
35246;DHT22;21379;50.962;6.960;2023-02-28T08:30:15;3.20;99.90
35246;DHT22;21379;50.962;6.960;2023-02-28T08:32:42;3.50;99.90
35246;DHT22;21379;50.962;6.960;2023-02-28T08:35:09;3.40;99.90
35246;DHT22;21379;50.962;6.960;2023-02-28T08:37:36;3.40;99.90
35246;DHT22;21379;50.962;6.960;2023-02-28T08:40:04;3.80;99.90
35246;DHT22;21379;50.962;6.960;2023-02-28T08:42:33;3.70;99.90
35246;DHT22;21379;50.962;6.960;2023-02-28T08:45:00;4.10;99.90
35246;DHT22;21379;50.962;6.960;2023-02-28T08:47:26;4.50;99.90
35246;DHT22;21379;50.962;6.960;2023-02-28T08:49:53;4.40;99.60
35246;DHT22;21379;50.962;6.960;2023-02-28T08:52:20;4.20;98.80
35246;DHT22;21379;50.962;6.960;2023-02-28T08:54:47;4.50;98.50
35246;DHT22;21379;50.962;6.960;2023-02-28T08:57:14;4.80;98.40
35246;DHT22;21379;50.962;6.960;2023-02-28T08:59:42;5.00;98.60
35246;DHT22;21379;50.962;6.960;2023-02-28T09:02:12;5.20;98.20
35246;DHT22;21379;50.962;6.960;2023-02-28T09:04:39;4.70;97.00
35246;DHT22;21379;50.962;6.960;2023-02-28T09:07:06;4.90;97.30
35246;DHT22;21379;50.962;6.960;2023-02-28T09:09:33;5.30;96.80
35246;DHT22;21379;50.962;6.960;2023-02-28T09:12:00;5.40;96.80
35246;DHT22;21379;50.962;6.960;2023-02-28T09:14:27;5.70;96.90
35246;DHT22;21379;50.962;6.960;2023-02-28T09:16:55;6.10;96.90
35246;DHT22;21379;50.962;6.960;2023-02-28T09:19:22;6.30;95.60
35246;DHT22;21379;50.962;6.960;2023-02-28T09:21:49;6.50;95.70
35246;DHT22;21379;50.962;6.960;2023-02-28T09:24:16;6.90;95.80
35246;DHT22;21379;50.962;6.960;2023-02-28T09:26:43;7.20;94.90
35246;DHT22;21379;50.962;6.960;2023-02-28T09:29:10;7.60;95.20
35246;DHT22;21379;50.962;6.960;2023-02-28T09:31:37;7.70;94.40
35246;DHT22;21379;50.962;6.960;2023-02-28T09:34:05;8.00;94.00
35246;DHT22;21379;50.962;6.960;2023-02-28T09:36:32;6.90;93.00
35246;DHT22;21379;50.962;6.960;2023-02-28T09:39:00;6.80;92.80
35246;DHT22;21379;50.962;6.960;2023-02-28T09:41:37;6.70;93.10
35246;DHT22;21379;50.962;6.960;2023-02-28T09:44:05;6.90;93.50
35246;DHT22;21379;50.962;6.960;2023-02-28T09:46:37;7.50;93.30
35246;DHT22;21379;50.962;6.960;2023-02-28T09:49:12;8.30;93.30
35246;DHT22;21379;50.962;6.960;2023-02-28T09:51:47;8.70;92.50
35246;DHT22;21379;50.962;6.960;2023-02-28T09:54:20;8.70;92.00
35246;DHT22;21379;50.962;6.960;2023-02-28T09:56:50;8.50;91.90
35246;DHT22;21379;50.962;6.960;2023-02-28T09:59:29;8.10;90.80
35246;DHT22;21379;50.962;6.960;2023-02-28T10:02:04;8.80;91.10
35246;DHT22;21379;50.962;6.960;2023-02-28T10:04:43;8.70;90.30
35246;DHT22;21379;50.962;6.960;2023-02-28T10:07:35;8.70;91.40
35246;DHT22;21379;50.962;6.960;2023-02-28T10:10:07;9.80;91.30
35246;DHT22;21379;50.962;6.960;2023-02-28T10:12:42;12.10;89.40
35246;DHT22;21379;50.962;6.960;2023-02-28T10:15:14;13.00;86.10
35246;DHT22;21379;50.962;6.960;2023-02-28T10:17:44;13.30;82.90
35246;DHT22;21379;50.962;6.960;2023-02-28T10:20:19;11.40;82.60
35246;DHT22;21379;50.962;6.960;2023-02-28T10:22:53;11.80;82.30
35246;DHT22;21379;50.962;6.960;2023-02-28T10:25:25;12.00;82.40
35246;DHT22;21379;50.962;6.960;2023-02-28T10:27:54;10.90;80.00
35246;DHT22;21379;50.962;6.960;2023-02-28T10:30:21;10.20;82.40
35246;DHT22;21379;50.962;6.960;2023-02-28T10:32:50;11.00;81.00
35246;DHT22;21379;50.962;6.960;2023-02-28T10:35:22;11.90;80.90
35246;DHT22;21379;50.962;6.960;2023-02-28T10:37:50;11.30;80.10
35246;DHT22;21379;50.962;6.960;2023-02-28T10:40:30;10.00;80.60
35246;DHT22;21379;50.962;6.960;2023-02-28T10:42:58;9.90;80.90
35246;DHT22;21379;50.962;6.960;2023-02-28T10:45:26;11.10;79.60
35246;DHT22;21379;50.962;6.960;2023-02-28T10:47:56;11.60;80.60
35246;DHT22;21379;50.962;6.960;2023-02-28T10:50:35;10.80;81.00
35246;DHT22;21379;50.962;6.960;2023-02-28T10:53:13;11.10;81.60
35246;DHT22;21379;50.962;6.960;2023-02-28T10:55:42;12.60;78.90
35246;DHT22;21379;50.962;6.960;2023-02-28T10:58:21;10.80;78.70
35246;DHT22;21379;50.962;6.960;2023-02-28T11:00:48;9.10;78.30
35246;DHT22;21379;50.962;6.960;2023-02-28T11:03:25;8.70;82.40
35246;DHT22;21379;50.962;6.960;2023-02-28T11:05:53;9.60;81.90
35246;DHT22;21379;50.962;6.960;2023-02-28T11:08:20;9.60;79.90
35246;DHT22;21379;50.962;6.960;2023-02-28T11:10:48;9.70;79.90
35246;DHT22;21379;50.962;6.960;2023-02-28T11:13:21;10.90;81.10
35246;DHT22;21379;50.962;6.960;2023-02-28T11:15:52;11.70;80.10
35246;DHT22;21379;50.962;6.960;2023-02-28T11:18:24;13.00;79.30
35246;DHT22;21379;50.962;6.960;2023-02-28T11:20:57;14.20;76.40
35246;DHT22;21379;50.962;6.960;2023-02-28T11:23:26;12.80;74.90
35246;DHT22;21379;50.962;6.960;2023-02-28T11:25:56;12.40;78.00
35246;DHT22;21379;50.962;6.960;2023-02-28T11:28:27;10.80;76.50
35246;DHT22;21379;50.962;6.960;2023-02-28T11:31:04;12.30;78.40
35246;DHT22;21379;50.962;6.960;2023-02-28T11:33:32;11.60;75.30
35246;DHT22;21379;50.962;6.960;2023-02-28T11:36:12;12.70;76.20
35246;DHT22;21379;50.962;6.960;2023-02-28T11:38:39;13.20;77.20
35246;DHT22;21379;50.962;6.960;2023-02-28T11:41:19;10.60;78.20
35246;DHT22;21379;50.962;6.960;2023-02-28T11:44:05;13.40;79.10
35246;DHT22;21379;50.962;6.960;2023-02-28T11:46:39;15.10;73.50
35246;DHT22;21379;50.962;6.960;2023-02-28T11:49:17;15.80;73.60
35246;DHT22;21379;50.962;6.960;2023-02-28T11:51:53;12.70;75.20
35246;DHT22;21379;50.962;6.960;2023-02-28T11:54:39;11.20;75.40
35246;DHT22;21379;50.962;6.960;2023-02-28T11:57:26;14.00;74.00
35246;DHT22;21379;50.962;6.960;2023-02-28T12:00:02;12.40;75.60
35246;DHT22;21379;50.962;6.960;2023-02-28T12:02:47;12.30;74.80
35246;DHT22;21379;50.962;6.960;2023-02-28T12:05:24;9.30;77.10
35246;DHT22;21379;50.962;6.960;2023-02-28T12:08:02;10.90;75.70
35246;DHT22;21379;50.962;6.960;2023-02-28T12:10:34;11.80;76.80
35246;DHT22;21379;50.962;6.960;2023-02-28T12:13:12;12.70;76.70
35246;DHT22;21379;50.962;6.960;2023-02-28T12:15:52;13.10;75.00
35246;DHT22;21379;50.962;6.960;2023-02-28T12:21:24;10.90;75.30
35246;DHT22;21379;50.962;6.960;2023-02-28T12:24:05;10.60;75.60
35246;DHT22;21379;50.962;6.960;2023-02-28T12:26:37;9.00;77.00
35246;DHT22;21379;50.962;6.960;2023-02-28T12:29:12;10.70;77.80
35246;DHT22;21379;50.962;6.960;2023-02-28T12:31:45;13.10;74.00
35246;DHT22;21379;50.962;6.960;2023-02-28T12:34:17;10.40;75.30
35246;DHT22;21379;50.962;6.960;2023-02-28T12:36:47;9.20;76.50
35246;DHT22;21379;50.962;6.960;2023-02-28T12:39:20;10.30;75.50
35246;DHT22;21379;50.962;6.960;2023-02-28T12:41:54;8.50;76.70
35246;DHT22;21379;50.962;6.960;2023-02-28T12:44:26;9.40;76.40
35246;DHT22;21379;50.962;6.960;2023-02-28T12:46:56;8.30;77.50
35246;DHT22;21379;50.962;6.960;2023-02-28T12:49:28;8.80;78.20
35246;DHT22;21379;50.962;6.960;2023-02-28T12:51:58;8.70;77.90
35246;DHT22;21379;50.962;6.960;2023-02-28T12:54:31;9.30;76.90
35246;DHT22;21379;50.962;6.960;2023-02-28T12:57:07;9.10;79.70
35246;DHT22;21379;50.962;6.960;2023-02-28T12:59:40;9.90;77.60
35246;DHT22;21379;50.962;6.960;2023-02-28T13:02:32;9.30;77.50
35246;DHT22;21379;50.962;6.960;2023-02-28T13:05:14;10.50;77.20
35246;DHT22;21379;50.962;6.960;2023-02-28T13:08:04;10.30;77.40
35246;DHT22;21379;50.962;6.960;2023-02-28T13:10:42;9.80;79.10
35246;DHT22;21379;50.962;6.960;2023-02-28T13:13:15;10.40;77.00
35246;DHT22;21379;50.962;6.960;2023-02-28T13:15:58;10.20;77.70
35246;DHT22;21379;50.962;6.960;2023-02-28T13:18:31;9.30;78.20
35246;DHT22;21379;50.962;6.960;2023-02-28T13:20:59;9.70;78.70
35246;DHT22;21379;50.962;6.960;2023-02-28T13:24:00;9.60;77.50
35246;DHT22;21379;50.962;6.960;2023-02-28T13:29:35;10.90;76.50
35246;DHT22;21379;50.962;6.960;2023-02-28T13:35:42;10.90;76.50
35246;DHT22;21379;50.962;6.960;2023-02-28T13:38:23;10.70;75.60
35246;DHT22;21379;50.962;6.960;2023-02-28T13:40:50;10.80;76.30
35246;DHT22;21379;50.962;6.960;2023-02-28T13:43:18;9.90;76.00
35246;DHT22;21379;50.962;6.960;2023-02-28T13:46:10;9.50;77.10
35246;DHT22;21379;50.962;6.960;2023-02-28T13:48:38;10.60;76.50
35246;DHT22;21379;50.962;6.960;2023-02-28T13:51:35;11.20;75.50
35246;DHT22;21379;50.962;6.960;2023-02-28T13:54:29;10.30;75.60
35246;DHT22;21379;50.962;6.960;2023-02-28T13:57:08;9.60;76.90
35246;DHT22;21379;50.962;6.960;2023-02-28T13:59:47;12.20;74.90
35246;DHT22;21379;50.962;6.960;2023-02-28T14:02:43;11.80;74.00
35246;DHT22;21379;50.962;6.960;2023-02-28T14:05:14;12.20;75.50
35246;DHT22;21379;50.962;6.960;2023-02-28T14:07:45;12.80;75.00
35246;DHT22;21379;50.962;6.960;2023-02-28T14:10:23;11.00;75.30
35246;DHT22;21379;50.962;6.960;2023-02-28T14:13:00;11.40;75.00
35246;DHT22;21379;50.962;6.960;2023-02-28T14:15:46;9.90;75.70
35246;DHT22;21379;50.962;6.960;2023-02-28T14:18:27;12.20;75.00
35246;DHT22;21379;50.962;6.960;2023-02-28T14:20:58;12.90;73.80
35246;DHT22;21379;50.962;6.960;2023-02-28T14:24:03;13.10;74.30
35246;DHT22;21379;50.962;6.960;2023-02-28T14:26:51;14.30;75.40
35246;DHT22;21379;50.962;6.960;2023-02-28T14:32:35;12.50;72.70
35246;DHT22;21379;50.962;6.960;2023-02-28T14:35:22;11.40;73.80
35246;DHT22;21379;50.962;6.960;2023-02-28T14:37:54;11.00;75.60
35246;DHT22;21379;50.962;6.960;2023-02-28T14:40:26;10.60;76.20
35246;DHT22;21379;50.962;6.960;2023-02-28T14:42:56;10.40;75.60
35246;DHT22;21379;50.962;6.960;2023-02-28T14:45:24;8.90;75.50
35246;DHT22;21379;50.962;6.960;2023-02-28T14:47:51;8.00;77.00
35246;DHT22;21379;50.962;6.960;2023-02-28T14:50:22;7.70;79.30
35246;DHT22;21379;50.962;6.960;2023-02-28T14:52:51;7.80;78.60
35246;DHT22;21379;50.962;6.960;2023-02-28T14:55:22;7.90;79.30
35246;DHT22;21379;50.962;6.960;2023-02-28T14:57:52;7.70;79.00
35246;DHT22;21379;50.962;6.960;2023-02-28T15:00:23;7.50;79.40
35246;DHT22;21379;50.962;6.960;2023-02-28T15:02:50;7.40;79.50
35246;DHT22;21379;50.962;6.960;2023-02-28T15:05:28;7.80;79.40
35246;DHT22;21379;50.962;6.960;2023-02-28T15:08:04;7.70;78.30
35246;DHT22;21379;50.962;6.960;2023-02-28T15:10:31;7.80;80.30
35246;DHT22;21379;50.962;6.960;2023-02-28T15:13:00;7.80;79.20
35246;DHT22;21379;50.962;6.960;2023-02-28T15:15:34;7.70;79.50
35246;DHT22;21379;50.962;6.960;2023-02-28T15:18:03;7.60;79.60
35246;DHT22;21379;50.962;6.960;2023-02-28T15:20:35;7.30;80.00
35246;DHT22;21379;50.962;6.960;2023-02-28T15:23:02;7.50;80.10
35246;DHT22;21379;50.962;6.960;2023-02-28T15:25:29;7.50;80.40
35246;DHT22;21379;50.962;6.960;2023-02-28T15:27:57;7.20;80.00
35246;DHT22;21379;50.962;6.960;2023-02-28T15:30:26;6.80;79.50
35246;DHT22;21379;50.962;6.960;2023-02-28T15:33:06;6.80;80.80
35246;DHT22;21379;50.962;6.960;2023-02-28T15:35:35;6.90;81.20
35246;DHT22;21379;50.962;6.960;2023-02-28T15:38:03;7.00;81.80
35246;DHT22;21379;50.962;6.960;2023-02-28T15:40:33;6.80;81.80
35246;DHT22;21379;50.962;6.960;2023-02-28T15:43:05;6.80;82.10
35246;DHT22;21379;50.962;6.960;2023-02-28T15:45:34;6.80;81.90
35246;DHT22;21379;50.962;6.960;2023-02-28T15:48:04;6.60;82.00
35246;DHT22;21379;50.962;6.960;2023-02-28T15:50:31;6.40;81.30
35246;DHT22;21379;50.962;6.960;2023-02-28T15:53:00;6.40;81.90
35246;DHT22;21379;50.962;6.960;2023-02-28T15:55:29;6.30;82.60
35246;DHT22;21379;50.962;6.960;2023-02-28T15:58:00;6.50;82.60
35246;DHT22;21379;50.962;6.960;2023-02-28T16:00:28;6.20;82.90
35246;DHT22;21379;50.962;6.960;2023-02-28T16:02:55;6.20;83.00
35246;DHT22;21379;50.962;6.960;2023-02-28T16:05:24;6.20;84.00
35246;DHT22;21379;50.962;6.960;2023-02-28T16:07:56;6.10;83.10
35246;DHT22;21379;50.962;6.960;2023-02-28T16:10:26;6.20;84.00
35246;DHT22;21379;50.962;6.960;2023-02-28T16:12:54;6.00;83.90
35246;DHT22;21379;50.962;6.960;2023-02-28T16:15:23;6.10;83.60
35246;DHT22;21379;50.962;6.960;2023-02-28T16:17:52;6.10;84.00
35246;DHT22;21379;50.962;6.960;2023-02-28T16:20:21;6.00;84.10